Time;durP1;ratioP1;P1;durP2;ratioP2;P2;SDS_P1;SDS_P2;PMS_P1;PMS_P2;Temp;Humidity;BMP_temperature;BMP_pressure;BME280_temperature;BME280_humidity;BME280_pressure;Samples;Min_cycle;Max_cycle;Signal;HPM_P1;HPM_P2
2022/12/02 00:01:05;;;;;;;;;;;8.00;99.90;;;;;;5114762;28;19914;-69
2022/12/02 00:03:31;;;;;;;;;;;7.90;99.90;;;;;;5114303;28;19908;-69
2022/12/02 00:06:00;;;;;;;;;;;7.90;99.90;;;;;;5114228;28;19929;-69
2022/12/02 00:08:29;;;;;;;;;;;7.90;99.90;;;;;;5109195;27;19928;-69
2022/12/02 00:10:56;;;;;;;;;;;7.80;99.90;;;;;;5098587;27;20243;-68
2022/12/02 00:13:23;;;;;;;;;;;7.80;99.90;;;;;;5107308;27;19961;-68
2022/12/02 00:15:54;;;;;;;;;;;7.80;99.90;;;;;;5114586;28;19998;-68
2022/12/02 00:18:20;;;;;;;;;;;7.80;99.90;;;;;;5106266;27;19918;-67
2022/12/02 00:20:46;;;;;;;;;;;7.80;99.90;;;;;;5093271;28;19912;-66
2022/12/02 00:23:12;;;;;;;;;;;7.70;99.90;;;;;;5093617;28;19908;-68
2022/12/02 00:25:38;;;;;;;;;;;7.80;99.90;;;;;;5098961;28;19915;-69
2022/12/02 00:28:04;;;;;;;;;;;7.70;99.90;;;;;;5112889;28;19927;-69
2022/12/02 00:30:31;;;;;;;;;;;7.70;99.90;;;;;;5102244;28;19919;-66
2022/12/02 00:32:57;;;;;;;;;;;7.70;99.90;;;;;;5097116;27;20428;-68
2022/12/02 00:35:23;;;;;;;;;;;7.70;99.90;;;;;;5092744;28;19980;-68
2022/12/02 00:37:49;;;;;;;;;;;7.70;99.90;;;;;;5075472;28;19947;-68
2022/12/02 00:40:15;;;;;;;;;;;7.70;99.90;;;;;;5074957;28;20039;-69
2022/12/02 00:42:43;;;;;;;;;;;7.70;99.90;;;;;;5093315;28;19916;-69
2022/12/02 00:47:54;;;;;;;;;;;7.80;99.90;;;;;;5093972;28;19965;-69
2022/12/02 00:50:20;;;;;;;;;;;7.80;99.90;;;;;;5093717;28;19912;-69
2022/12/02 00:52:45;;;;;;;;;;;7.80;99.90;;;;;;5098335;27;20003;-68
2022/12/02 00:55:11;;;;;;;;;;;7.80;99.90;;;;;;5091955;28;20011;-69
2022/12/02 00:57:37;;;;;;;;;;;7.80;99.90;;;;;;5093369;28;19908;-68
2022/12/02 01:00:04;;;;;;;;;;;7.80;99.90;;;;;;5093312;28;19919;-69
2022/12/02 01:02:30;;;;;;;;;;;7.80;99.90;;;;;;5093985;28;19958;-69
2022/12/02 01:04:55;;;;;;;;;;;7.80;99.90;;;;;;5108335;28;20349;-68
2022/12/02 01:07:21;;;;;;;;;;;7.80;99.90;;;;;;5112150;28;19974;-68
2022/12/02 01:09:47;;;;;;;;;;;7.80;99.90;;;;;;5106413;28;20028;-68
2022/12/02 01:12:12;;;;;;;;;;;7.80;99.90;;;;;;5110790;28;19912;-67
2022/12/02 01:14:38;;;;;;;;;;;7.60;99.90;;;;;;5111849;28;19911;-68
2022/12/02 01:17:04;;;;;;;;;;;7.70;99.90;;;;;;5110550;28;19911;-68
2022/12/02 01:19:30;;;;;;;;;;;7.70;99.90;;;;;;5109816;28;19920;-66
2022/12/02 01:21:55;;;;;;;;;;;7.60;99.90;;;;;;5112560;28;19943;-67
2022/12/02 01:24:21;;;;;;;;;;;7.60;99.90;;;;;;5109712;28;19912;-68
2022/12/02 01:26:47;;;;;;;;;;;7.60;99.90;;;;;;5111239;28;19977;-68
2022/12/02 01:29:12;;;;;;;;;;;7.70;99.90;;;;;;5112183;28;19990;-68
2022/12/02 01:31:38;;;;;;;;;;;7.70;99.90;;;;;;5112650;28;19907;-65
2022/12/02 01:34:04;;;;;;;;;;;7.60;99.90;;;;;;5110384;28;19919;-68
2022/12/02 01:36:29;;;;;;;;;;;7.60;99.90;;;;;;5104706;28;19964;-68
2022/12/02 01:38:55;;;;;;;;;;;7.60;99.90;;;;;;5111598;28;20369;-69
2022/12/02 01:41:21;;;;;;;;;;;7.70;99.90;;;;;;5112257;28;19907;-69
2022/12/02 01:43:47;;;;;;;;;;;7.80;99.90;;;;;;5112367;28;19973;-69
2022/12/02 01:46:13;;;;;;;;;;;7.90;99.90;;;;;;5111673;28;20404;-69
2022/12/02 01:48:39;;;;;;;;;;;7.90;99.90;;;;;;5112488;28;19907;-68
2022/12/02 01:51:05;;;;;;;;;;;7.80;99.90;;;;;;5110428;28;19965;-68
2022/12/02 01:53:31;;;;;;;;;;;7.80;99.90;;;;;;5109682;28;19992;-68
2022/12/02 01:55:57;;;;;;;;;;;7.70;99.90;;;;;;5102294;28;20002;-69
2022/12/02 01:58:27;;;;;;;;;;;7.70;99.90;;;;;;5094630;28;19959;-68
2022/12/02 02:00:53;;;;;;;;;;;7.70;99.90;;;;;;5092325;28;20327;-68
2022/12/02 02:03:19;;;;;;;;;;;7.60;99.90;;;;;;5092471;28;19908;-69
2022/12/02 02:05:45;;;;;;;;;;;7.70;99.90;;;;;;5092042;28;19927;-70
2022/12/02 02:08:14;;;;;;;;;;;7.80;99.90;;;;;;5092305;28;20363;-69
2022/12/02 02:10:42;;;;;;;;;;;7.80;99.90;;;;;;5092690;28;19908;-69
2022/12/02 02:13:08;;;;;;;;;;;7.80;99.90;;;;;;5108720;28;19909;-68
2022/12/02 02:15:36;;;;;;;;;;;7.80;99.90;;;;;;5092384;28;20057;-68
2022/12/02 02:18:02;;;;;;;;;;;7.80;99.90;;;;;;5095854;28;19920;-69
2022/12/02 02:20:27;;;;;;;;;;;7.80;99.90;;;;;;5111242;28;19923;-69
2022/12/02 02:23:06;;;;;;;;;;;7.80;99.90;;;;;;5108923;28;19991;-69
2022/12/02 02:25:32;;;;;;;;;;;7.80;99.90;;;;;;5107637;28;20006;-69
2022/12/02 02:27:58;;;;;;;;;;;7.70;99.90;;;;;;5113321;28;19923;-70
2022/12/02 02:30:26;;;;;;;;;;;7.70;99.90;;;;;;5115049;27;19938;-69
2022/12/02 02:32:52;;;;;;;;;;;7.60;99.90;;;;;;5115089;28;19908;-68
2022/12/02 02:35:18;;;;;;;;;;;7.60;99.90;;;;;;5092349;28;19912;-68
2022/12/02 02:37:44;;;;;;;;;;;7.60;99.90;;;;;;5113844;28;19956;-67
2022/12/02 02:40:11;;;;;;;;;;;7.60;99.90;;;;;;5117828;27;19919;-67
2022/12/02 02:42:37;;;;;;;;;;;7.60;99.90;;;;;;5111660;27;19927;-69
2022/12/02 02:45:03;;;;;;;;;;;7.60;99.90;;;;;;5112357;28;19912;-68
2022/12/02 02:47:29;;;;;;;;;;;7.60;99.90;;;;;;5113099;27;19931;-69
2022/12/02 02:49:54;;;;;;;;;;;7.60;99.90;;;;;;5115552;28;20275;-69
2022/12/02 02:52:20;;;;;;;;;;;7.60;99.90;;;;;;5106231;27;19912;-67
2022/12/02 02:54:46;;;;;;;;;;;7.60;99.90;;;;;;5098035;28;19931;-69
2022/12/02 02:57:12;;;;;;;;;;;7.60;99.90;;;;;;5095346;28;19969;-68
2022/12/02 02:59:39;;;;;;;;;;;7.50;99.90;;;;;;5115958;28;19912;-69
2022/12/02 03:02:07;;;;;;;;;;;7.50;99.90;;;;;;5098840;28;20537;-68
2022/12/02 03:04:33;;;;;;;;;;;7.60;99.90;;;;;;5103828;27;19916;-67
2022/12/02 03:06:58;;;;;;;;;;;7.60;99.90;;;;;;5095624;28;19965;-67
2022/12/02 03:09:24;;;;;;;;;;;7.50;99.90;;;;;;5095527;28;20000;-69
2022/12/02 03:11:52;;;;;;;;;;;7.50;99.90;;;;;;5094915;28;20011;-68
2022/12/02 03:14:18;;;;;;;;;;;7.50;99.90;;;;;;5076830;28;19909;-68
2022/12/02 03:16:44;;;;;;;;;;;7.50;99.90;;;;;;5094805;28;19912;-68
2022/12/02 03:19:10;;;;;;;;;;;7.50;99.90;;;;;;5103806;27;19913;-68
2022/12/02 03:21:36;;;;;;;;;;;7.50;99.90;;;;;;5086834;28;20029;-69
2022/12/02 03:24:03;;;;;;;;;;;7.50;99.90;;;;;;5112428;28;19959;-69
2022/12/02 03:26:29;;;;;;;;;;;7.50;99.90;;;;;;5113376;28;20431;-69
2022/12/02 03:28:55;;;;;;;;;;;7.50;99.90;;;;;;5110357;28;20428;-68
2022/12/02 03:31:21;;;;;;;;;;;7.60;99.90;;;;;;5110902;28;20290;-68
2022/12/02 03:33:47;;;;;;;;;;;7.60;99.90;;;;;;5095929;28;19918;-67
2022/12/02 03:36:13;;;;;;;;;;;7.60;99.90;;;;;;5112851;28;20007;-68
2022/12/02 03:38:39;;;;;;;;;;;7.60;99.90;;;;;;5093312;28;19955;-68
2022/12/02 03:41:06;;;;;;;;;;;7.50;99.90;;;;;;5109238;28;19965;-68
2022/12/02 03:43:31;;;;;;;;;;;7.50;99.90;;;;;;5105747;28;19943;-69
2022/12/02 03:45:57;;;;;;;;;;;7.30;99.90;;;;;;5109302;28;19951;-69
2022/12/02 03:48:24;;;;;;;;;;;7.30;99.90;;;;;;5113497;28;19916;-66
2022/12/02 03:50:50;;;;;;;;;;;7.30;99.90;;;;;;5113597;28;19911;-69
2022/12/02 03:53:16;;;;;;;;;;;7.30;99.90;;;;;;5114094;28;19915;-69
2022/12/02 03:55:42;;;;;;;;;;;7.30;99.90;;;;;;5113302;27;19911;-68
2022/12/02 03:58:08;;;;;;;;;;;7.30;99.90;;;;;;5113539;28;20064;-68
2022/12/02 04:00:34;;;;;;;;;;;7.30;99.90;;;;;;5114913;28;20004;-67
2022/12/02 04:03:00;;;;;;;;;;;7.30;99.90;;;;;;5111000;27;19920;-66
2022/12/02 04:05:25;;;;;;;;;;;7.30;99.90;;;;;;5113400;27;19926;-68
2022/12/02 04:07:51;;;;;;;;;;;7.30;99.90;;;;;;5112146;27;19915;-67
2022/12/02 04:10:17;;;;;;;;;;;7.20;99.90;;;;;;5112672;28;19969;-66
2022/12/02 04:12:42;;;;;;;;;;;7.30;99.90;;;;;;5113709;28;19919;-68
2022/12/02 04:15:09;;;;;;;;;;;7.30;99.90;;;;;;5113046;28;20003;-66
2022/12/02 04:17:35;;;;;;;;;;;7.40;99.90;;;;;;5111747;28;19934;-68
2022/12/02 04:20:01;;;;;;;;;;;7.40;99.90;;;;;;5092994;27;19912;-67
2022/12/02 04:22:26;;;;;;;;;;;7.40;99.90;;;;;;5129120;27;19912;-69
2022/12/02 04:24:52;;;;;;;;;;;7.40;99.90;;;;;;5111876;28;19957;-66
2022/12/02 04:27:18;;;;;;;;;;;7.40;99.90;;;;;;5112414;28;19916;-66
2022/12/02 04:29:43;;;;;;;;;;;7.50;99.90;;;;;;5111087;28;19955;-68
2022/12/02 04:32:09;;;;;;;;;;;7.50;99.90;;;;;;5109772;27;19919;-66
2022/12/02 04:34:34;;;;;;;;;;;7.40;99.90;;;;;;5111831;27;19919;-68
2022/12/02 04:37:00;;;;;;;;;;;7.40;99.90;;;;;;5105026;28;19964;-67
2022/12/02 04:39:26;;;;;;;;;;;7.50;99.90;;;;;;5088426;28;19916;-68
2022/12/02 04:41:52;;;;;;;;;;;7.50;99.90;;;;;;5110153;28;19927;-68
2022/12/02 04:44:17;;;;;;;;;;;7.60;99.90;;;;;;5108699;28;19922;-66
2022/12/02 04:46:43;;;;;;;;;;;7.60;99.90;;;;;;5113528;28;19911;-66
2022/12/02 04:49:08;;;;;;;;;;;7.60;99.90;;;;;;5112071;28;19916;-68
2022/12/02 04:51:34;;;;;;;;;;;7.60;99.90;;;;;;5113595;28;19908;-68
2022/12/02 04:54:00;;;;;;;;;;;7.60;99.90;;;;;;5114168;28;19911;-68
2022/12/02 04:56:25;;;;;;;;;;;7.70;99.90;;;;;;5114055;28;19916;-67
2022/12/02 04:58:51;;;;;;;;;;;7.70;99.90;;;;;;5114054;27;19954;-68
2022/12/02 05:01:17;;;;;;;;;;;7.70;99.90;;;;;;5112794;27;19907;-68
2022/12/02 05:03:42;;;;;;;;;;;7.80;99.90;;;;;;5113558;28;19914;-69
2022/12/02 05:06:08;;;;;;;;;;;7.90;99.90;;;;;;5112775;28;19912;-68
2022/12/02 05:08:34;;;;;;;;;;;7.80;99.90;;;;;;5113494;28;19911;-69
2022/12/02 05:10:59;;;;;;;;;;;7.80;99.90;;;;;;5113873;28;19994;-69
2022/12/02 05:13:25;;;;;;;;;;;7.90;99.90;;;;;;5113388;28;19971;-67
2022/12/02 05:15:50;;;;;;;;;;;7.90;99.90;;;;;;5113123;28;19908;-68
2022/12/02 05:18:16;;;;;;;;;;;7.80;99.90;;;;;;5096050;28;19912;-68
2022/12/02 05:20:41;;;;;;;;;;;7.90;99.90;;;;;;5092976;28;19908;-68
2022/12/02 05:23:07;;;;;;;;;;;7.90;99.90;;;;;;5092821;28;19948;-68
2022/12/02 05:25:33;;;;;;;;;;;7.90;99.90;;;;;;5093008;28;20069;-67
2022/12/02 05:27:59;;;;;;;;;;;7.90;99.90;;;;;;5092715;28;19947;-68
2022/12/02 05:30:24;;;;;;;;;;;7.90;99.90;;;;;;5111732;28;19916;-69
2022/12/02 05:32:51;;;;;;;;;;;8.00;99.90;;;;;;5105580;28;19954;-68
2022/12/02 05:35:17;;;;;;;;;;;7.90;99.90;;;;;;5110272;28;19911;-68
2022/12/02 05:37:42;;;;;;;;;;;7.90;99.90;;;;;;5097041;28;19912;-68
2022/12/02 05:40:09;;;;;;;;;;;7.80;99.90;;;;;;5111821;28;19908;-69
2022/12/02 05:42:34;;;;;;;;;;;7.80;99.90;;;;;;5111087;28;19951;-68
2022/12/02 05:45:05;;;;;;;;;;;7.80;99.90;;;;;;5110602;28;19947;-68
2022/12/02 05:47:31;;;;;;;;;;;7.80;99.90;;;;;;5111265;28;19919;-68
2022/12/02 05:49:58;;;;;;;;;;;7.80;99.90;;;;;;5107448;28;19926;-68
2022/12/02 05:52:25;;;;;;;;;;;7.80;99.90;;;;;;5111435;28;19919;-68
2022/12/02 05:54:51;;;;;;;;;;;7.80;99.90;;;;;;5112304;28;20291;-69
2022/12/02 05:57:20;;;;;;;;;;;7.80;99.90;;;;;;5112722;28;19908;-68
2022/12/02 05:59:46;;;;;;;;;;;7.90;99.90;;;;;;5112345;28;19920;-69
2022/12/02 06:02:38;;;;;;;;;;;7.90;99.90;;;;;;5092762;28;20341;-69
2022/12/02 06:05:23;;;;;;;;;;;7.90;99.90;;;;;;5106072;28;19916;-69
2022/12/02 06:07:50;;;;;;;;;;;7.80;99.90;;;;;;5113543;28;19963;-68
2022/12/02 06:10:22;;;;;;;;;;;7.80;99.90;;;;;;5113774;27;19916;-68
2022/12/02 06:12:48;;;;;;;;;;;7.80;99.90;;;;;;5115441;27;19911;-68
2022/12/02 06:15:14;;;;;;;;;;;7.80;99.90;;;;;;5114175;27;19912;-68
2022/12/02 06:17:40;;;;;;;;;;;7.80;99.90;;;;;;5106358;27;19966;-68
2022/12/02 06:20:06;;;;;;;;;;;7.90;99.90;;;;;;5111198;28;20378;-67
2022/12/02 06:22:32;;;;;;;;;;;7.80;99.90;;;;;;5115657;27;19912;-68
2022/12/02 06:25:01;;;;;;;;;;;7.80;99.90;;;;;;5107328;28;19947;-68
2022/12/02 06:27:27;;;;;;;;;;;7.80;99.90;;;;;;5110910;27;19946;-66
2022/12/02 06:29:59;;;;;;;;;;;7.80;99.90;;;;;;5112927;27;19911;-68
2022/12/02 06:32:32;;;;;;;;;;;7.80;99.90;;;;;;5114248;27;19979;-67
2022/12/02 06:34:58;;;;;;;;;;;7.80;99.90;;;;;;5112022;27;20013;-67
2022/12/02 06:37:27;;;;;;;;;;;7.80;99.90;;;;;;5113125;28;19912;-68
2022/12/02 06:39:54;;;;;;;;;;;7.80;99.90;;;;;;5115255;28;19919;-65
2022/12/02 06:42:36;;;;;;;;;;;7.80;99.90;;;;;;5114073;28;19950;-63
2022/12/02 06:45:07;;;;;;;;;;;7.90;99.90;;;;;;5109218;28;19918;-68
2022/12/02 06:47:32;;;;;;;;;;;7.90;99.90;;;;;;5113906;28;20256;-67
2022/12/02 06:50:18;;;;;;;;;;;8.00;99.90;;;;;;5110058;28;20045;-69
2022/12/02 06:52:45;;;;;;;;;;;8.00;99.90;;;;;;5107561;28;19907;-67
2022/12/02 06:55:25;;;;;;;;;;;8.00;99.90;;;;;;5091266;28;19912;-68
2022/12/02 06:57:51;;;;;;;;;;;8.00;99.90;;;;;;5110403;28;19919;-67
2022/12/02 07:00:17;;;;;;;;;;;8.00;99.90;;;;;;5113226;28;19908;-68
2022/12/02 07:02:42;;;;;;;;;;;8.10;99.90;;;;;;5114945;28;20359;-68
2022/12/02 07:05:10;;;;;;;;;;;8.00;99.90;;;;;;5110439;27;19961;-66
2022/12/02 07:07:35;;;;;;;;;;;8.00;99.90;;;;;;5090042;28;19959;-65
2022/12/02 07:10:03;;;;;;;;;;;8.00;99.90;;;;;;5114279;28;19930;-67
2022/12/02 07:12:28;;;;;;;;;;;8.00;99.90;;;;;;5114356;28;19999;-66
2022/12/02 07:14:55;;;;;;;;;;;8.10;99.90;;;;;;5098597;28;19950;-67
2022/12/02 07:17:28;;;;;;;;;;;8.10;99.90;;;;;;5125464;27;19908;-67
2022/12/02 07:20:07;;;;;;;;;;;8.00;99.90;;;;;;5106774;28;19972;-67
2022/12/02 07:22:39;;;;;;;;;;;8.00;99.90;;;;;;5128311;27;19912;-67
2022/12/02 07:25:23;;;;;;;;;;;8.10;99.90;;;;;;5104878;28;19919;-65
2022/12/02 07:27:50;;;;;;;;;;;8.00;99.90;;;;;;5102671;27;20559;-66
2022/12/02 07:30:16;;;;;;;;;;;7.90;99.90;;;;;;5101645;28;19912;-67
2022/12/02 07:32:41;;;;;;;;;;;7.90;99.90;;;;;;5103287;27;19919;-68
2022/12/02 07:35:07;;;;;;;;;;;7.90;99.90;;;;;;5108054;28;19912;-64
2022/12/02 07:37:33;;;;;;;;;;;8.00;99.90;;;;;;5104989;27;20016;-66
2022/12/02 07:39:58;;;;;;;;;;;8.20;99.90;;;;;;5110158;28;19999;-64
2022/12/02 07:42:24;;;;;;;;;;;8.50;99.90;;;;;;5107643;28;19919;-64
2022/12/02 07:44:49;;;;;;;;;;;8.60;99.90;;;;;;5094146;28;19955;-66
2022/12/02 07:47:15;;;;;;;;;;;8.50;99.90;;;;;;5110939;27;19937;-66
2022/12/02 07:49:40;;;;;;;;;;;8.50;99.90;;;;;;5112502;27;19912;-67
2022/12/02 07:52:06;;;;;;;;;;;8.50;99.90;;;;;;5113365;28;20019;-67
2022/12/02 07:54:32;;;;;;;;;;;8.30;99.90;;;;;;5108353;27;20391;-68
2022/12/02 07:56:58;;;;;;;;;;;8.20;99.90;;;;;;5110809;28;19966;-67
2022/12/02 07:59:23;;;;;;;;;;;8.10;99.90;;;;;;5112090;28;19911;-69
2022/12/02 08:01:49;;;;;;;;;;;8.10;99.90;;;;;;5112489;28;19916;-67
2022/12/02 08:04:14;;;;;;;;;;;8.20;99.90;;;;;;5109245;28;19911;-67
2022/12/02 08:06:40;;;;;;;;;;;8.10;99.90;;;;;;5112922;28;19938;-68
2022/12/02 08:09:07;;;;;;;;;;;8.10;99.90;;;;;;5112325;28;19912;-69
2022/12/02 08:11:32;;;;;;;;;;;8.10;99.90;;;;;;5110064;28;19974;-67
2022/12/02 08:13:58;;;;;;;;;;;8.20;99.90;;;;;;5109791;28;19915;-66
2022/12/02 08:16:24;;;;;;;;;;;8.10;99.90;;;;;;5112586;28;19912;-68
2022/12/02 08:18:50;;;;;;;;;;;8.10;99.90;;;;;;5110542;27;19908;-67
2022/12/02 08:21:16;;;;;;;;;;;8.10;99.90;;;;;;5103273;28;19927;-67
2022/12/02 08:23:41;;;;;;;;;;;8.10;99.90;;;;;;5107706;28;20286;-69
2022/12/02 08:26:07;;;;;;;;;;;8.10;99.90;;;;;;5106060;27;19919;-68
2022/12/02 08:28:32;;;;;;;;;;;8.20;99.90;;;;;;5107346;28;19912;-67
2022/12/02 08:30:58;;;;;;;;;;;8.10;99.90;;;;;;5110684;28;19969;-67
2022/12/02 08:33:24;;;;;;;;;;;8.20;99.90;;;;;;5111773;28;19940;-65
2022/12/02 08:35:49;;;;;;;;;;;8.20;99.90;;;;;;5112463;28;19912;-68
2022/12/02 08:38:15;;;;;;;;;;;8.20;99.90;;;;;;5112748;28;19908;-67
2022/12/02 08:40:41;;;;;;;;;;;8.20;99.90;;;;;;5109161;28;19912;-67
2022/12/02 08:43:06;;;;;;;;;;;8.20;99.90;;;;;;5111573;28;19922;-65
2022/12/02 08:45:32;;;;;;;;;;;8.30;99.90;;;;;;5110380;28;19912;-67
2022/12/02 08:47:58;;;;;;;;;;;8.40;99.90;;;;;;5110796;28;19912;-68
2022/12/02 08:50:24;;;;;;;;;;;8.50;99.90;;;;;;5110580;28;20274;-67
2022/12/02 08:52:49;;;;;;;;;;;8.50;99.90;;;;;;5128740;27;19912;-67
2022/12/02 08:55:15;;;;;;;;;;;8.40;99.90;;;;;;5114198;27;19914;-67
2022/12/02 08:57:40;;;;;;;;;;;8.40;99.90;;;;;;5084871;28;19922;-65
2022/12/02 09:00:07;;;;;;;;;;;8.60;99.90;;;;;;5112576;28;19937;-68
2022/12/02 09:02:32;;;;;;;;;;;8.60;99.90;;;;;;5112887;28;20006;-66
2022/12/02 09:04:58;;;;;;;;;;;8.60;99.90;;;;;;5112281;28;20347;-69
2022/12/02 09:07:24;;;;;;;;;;;8.60;99.90;;;;;;5112886;28;19920;-65
2022/12/02 09:09:49;;;;;;;;;;;8.60;99.90;;;;;;5112352;28;19912;-67
2022/12/02 09:12:15;;;;;;;;;;;8.60;99.90;;;;;;5112758;28;19958;-67
2022/12/02 09:14:40;;;;;;;;;;;8.60;99.90;;;;;;5107218;28;19912;-70
2022/12/02 09:17:06;;;;;;;;;;;8.60;99.90;;;;;;5092603;28;19912;-67
2022/12/02 09:19:32;;;;;;;;;;;8.60;99.90;;;;;;5106704;28;20022;-68
2022/12/02 09:21:57;;;;;;;;;;;8.60;99.90;;;;;;5111664;28;19918;-66
2022/12/02 09:24:23;;;;;;;;;;;8.60;99.90;;;;;;5112710;28;20362;-68
2022/12/02 09:26:48;;;;;;;;;;;8.60;99.90;;;;;;5110597;28;19922;-67
2022/12/02 09:29:14;;;;;;;;;;;8.60;99.90;;;;;;5109766;28;20072;-68
2022/12/02 09:31:40;;;;;;;;;;;8.50;99.90;;;;;;5112175;28;19911;-67
2022/12/02 09:34:05;;;;;;;;;;;8.60;99.90;;;;;;5112698;28;20530;-67
2022/12/02 09:36:31;;;;;;;;;;;8.70;99.90;;;;;;5110671;28;19912;-67
2022/12/02 09:38:56;;;;;;;;;;;8.60;99.90;;;;;;5116905;28;19992;-63
2022/12/02 09:41:22;;;;;;;;;;;8.70;99.90;;;;;;5120125;28;19909;-66
2022/12/02 09:43:48;;;;;;;;;;;8.70;99.90;;;;;;5105635;28;19982;-67
2022/12/02 09:46:14;;;;;;;;;;;8.70;99.90;;;;;;5114042;27;20396;-68
2022/12/02 09:48:40;;;;;;;;;;;8.80;99.90;;;;;;5098342;28;19924;-68
2022/12/02 09:51:06;;;;;;;;;;;8.80;99.90;;;;;;5108990;27;19945;-66
2022/12/02 09:53:32;;;;;;;;;;;8.80;99.90;;;;;;5111516;28;19912;-67
2022/12/02 09:55:58;;;;;;;;;;;8.70;99.90;;;;;;5109716;28;20000;-66
2022/12/02 09:58:25;;;;;;;;;;;8.70;99.90;;;;;;5114280;27;19911;-66
2022/12/02 10:00:51;;;;;;;;;;;8.70;99.90;;;;;;5116112;28;20348;-66
2022/12/02 10:03:19;;;;;;;;;;;8.70;99.90;;;;;;5114579;28;19915;-65
2022/12/02 10:05:45;;;;;;;;;;;8.70;99.90;;;;;;5113292;28;19939;-63
2022/12/02 10:08:12;;;;;;;;;;;8.70;99.90;;;;;;5116742;28;20359;-65
2022/12/02 10:10:40;;;;;;;;;;;8.70;99.90;;;;;;5113715;28;19923;-67
2022/12/02 10:13:05;;;;;;;;;;;8.70;99.90;;;;;;5114900;28;19923;-66
2022/12/02 10:15:31;;;;;;;;;;;8.70;99.90;;;;;;5113851;28;19912;-68
2022/12/02 10:17:58;;;;;;;;;;;8.70;99.90;;;;;;5112128;27;19918;-68
2022/12/02 10:20:26;;;;;;;;;;;8.80;99.90;;;;;;5115891;27;19912;-66
2022/12/02 10:23:03;;;;;;;;;;;8.80;99.90;;;;;;5113298;27;20393;-66
2022/12/02 10:25:29;;;;;;;;;;;8.80;99.90;;;;;;5114201;28;19912;-67
2022/12/02 10:27:55;;;;;;;;;;;8.80;99.90;;;;;;5114955;28;20271;-67
2022/12/02 10:30:23;;;;;;;;;;;8.80;99.90;;;;;;5114874;28;19941;-66
2022/12/02 10:33:15;;;;;;;;;;;8.80;99.90;;;;;;5094633;28;19911;-68
2022/12/02 10:35:45;;;;;;;;;;;8.80;99.90;;;;;;5102726;28;19912;-67
2022/12/02 10:38:28;;;;;;;;;;;8.80;99.90;;;;;;5116017;28;19908;-67
2022/12/02 10:41:14;;;;;;;;;;;8.90;99.90;;;;;;5112622;28;19914;-66
2022/12/02 10:43:41;;;;;;;;;;;8.90;99.90;;;;;;5085829;28;19995;-66
2022/12/02 10:46:06;;;;;;;;;;;9.00;99.90;;;;;;5095191;28;19954;-66
2022/12/02 10:48:34;;;;;;;;;;;9.00;99.90;;;;;;5108759;28;20350;-66
2022/12/02 10:50:59;;;;;;;;;;;9.00;99.90;;;;;;5114485;28;19943;-67
2022/12/02 10:53:27;;;;;;;;;;;9.10;99.90;;;;;;5116996;27;20282;-66
2022/12/02 10:55:53;;;;;;;;;;;8.90;99.90;;;;;;5110390;27;19912;-67
2022/12/02 10:58:23;;;;;;;;;;;9.00;99.90;;;;;;5110790;28;19912;-66
2022/12/02 11:00:48;;;;;;;;;;;8.90;99.90;;;;;;5112346;28;19919;-67
2022/12/02 11:03:14;;;;;;;;;;;8.90;99.90;;;;;;5108669;28;19916;-65
2022/12/02 11:05:40;;;;;;;;;;;8.90;99.90;;;;;;5096458;28;19994;-66
2022/12/02 11:08:15;;;;;;;;;;;8.80;99.90;;;;;;5115316;28;19915;-66
2022/12/02 11:10:42;;;;;;;;;;;8.80;99.90;;;;;;5112491;28;19994;-67
2022/12/02 11:13:16;;;;;;;;;;;8.90;99.90;;;;;;5113749;28;19927;-66
2022/12/02 11:15:45;;;;;;;;;;;8.90;99.90;;;;;;5094982;28;19908;-65
2022/12/02 11:18:29;;;;;;;;;;;8.90;99.90;;;;;;5104018;27;19955;-66
2022/12/02 11:21:14;;;;;;;;;;;8.90;99.90;;;;;;5107587;27;20396;-64
2022/12/02 11:23:40;;;;;;;;;;;8.90;99.90;;;;;;5107521;28;19957;-65
2022/12/02 11:26:06;;;;;;;;;;;8.80;99.90;;;;;;5113624;28;20398;-65
2022/12/02 11:28:35;;;;;;;;;;;8.90;99.90;;;;;;5110892;27;19916;-66
2022/12/02 11:31:09;;;;;;;;;;;8.90;99.90;;;;;;5106231;28;19912;-65
2022/12/02 11:34:04;;;;;;;;;;;;;;;;;;;;;
2022/12/02 11:36:31;;;;;;;;;;;9.00;99.90;;;;;;5113415;27;19920;-64
2022/12/02 11:39:17;;;;;;;;;;;9.00;99.90;;;;;;5109955;28;19923;-65
2022/12/02 11:41:49;;;;;;;;;;;9.00;99.90;;;;;;5106877;28;20003;-65
2022/12/02 11:44:25;;;;;;;;;;;9.00;99.90;;;;;;5112598;27;19931;-65
2022/12/02 11:46:57;;;;;;;;;;;9.00;99.90;;;;;;5110203;28;20177;-65
2022/12/02 11:49:39;;;;;;;;;;;9.10;99.90;;;;;;5113378;28;19985;-63
2022/12/02 11:52:07;;;;;;;;;;;9.10;99.90;;;;;;5115151;27;19912;-65
2022/12/02 11:54:41;;;;;;;;;;;9.00;99.90;;;;;;5114361;27;19907;-65
2022/12/02 11:57:14;;;;;;;;;;;9.10;99.90;;;;;;5111393;28;19943;-65
2022/12/02 11:59:40;;;;;;;;;;;9.10;99.90;;;;;;5108497;28;19912;-66
2022/12/02 12:02:09;;;;;;;;;;;9.10;99.90;;;;;;5110256;28;19938;-65
2022/12/02 12:04:34;;;;;;;;;;;9.10;99.90;;;;;;5110844;28;19969;-65
2022/12/02 12:07:00;;;;;;;;;;;9.10;99.90;;;;;;5112817;27;20294;-63
2022/12/02 12:09:26;;;;;;;;;;;9.10;99.90;;;;;;5114423;28;19912;-64
2022/12/02 12:12:11;;;;;;;;;;;9.20;99.90;;;;;;5108789;27;20397;-64
2022/12/02 12:14:54;;;;;;;;;;;9.20;99.90;;;;;;5113861;28;19912;-65
2022/12/02 12:17:29;;;;;;;;;;;9.10;99.90;;;;;;5109092;28;20437;-63
2022/12/02 12:19:55;;;;;;;;;;;9.10;99.90;;;;;;5108943;28;19919;-64
2022/12/02 12:22:28;;;;;;;;;;;9.20;99.90;;;;;;5085004;28;19912;-65
2022/12/02 12:25:14;;;;;;;;;;;9.20;99.90;;;;;;5109535;28;19912;-62
2022/12/02 12:27:39;;;;;;;;;;;9.30;99.90;;;;;;5111619;27;19916;-65
2022/12/02 12:30:05;;;;;;;;;;;9.30;99.90;;;;;;5109910;27;19919;-66
2022/12/02 12:32:31;;;;;;;;;;;9.30;99.90;;;;;;5106696;28;19939;-65
2022/12/02 12:34:57;;;;;;;;;;;9.30;99.90;;;;;;5111819;28;19923;-65
2022/12/02 12:37:22;;;;;;;;;;;9.40;99.90;;;;;;5106741;28;19999;-65
2022/12/02 12:39:48;;;;;;;;;;;9.40;99.90;;;;;;5113884;28;20374;-66
2022/12/02 12:42:14;;;;;;;;;;;9.40;99.90;;;;;;5114095;28;19908;-65
2022/12/02 12:44:39;;;;;;;;;;;9.40;99.90;;;;;;5114573;27;19911;-67
2022/12/02 12:47:05;;;;;;;;;;;9.50;99.90;;;;;;5113575;28;20260;-66
2022/12/02 12:49:32;;;;;;;;;;;9.60;99.90;;;;;;5112504;28;19916;-66
2022/12/02 12:51:58;;;;;;;;;;;9.60;99.90;;;;;;5113220;28;20324;-65
2022/12/02 12:54:23;;;;;;;;;;;9.60;99.90;;;;;;5113363;28;19971;-64
2022/12/02 12:56:49;;;;;;;;;;;9.50;99.90;;;;;;5113465;28;20053;-63
2022/12/02 12:59:14;;;;;;;;;;;9.40;99.90;;;;;;5114140;28;19908;-65
2022/12/02 13:01:41;;;;;;;;;;;9.30;99.90;;;;;;5099393;27;19912;-63
2022/12/02 13:04:06;;;;;;;;;;;9.20;99.90;;;;;;5100597;28;19911;-65
2022/12/02 13:06:32;;;;;;;;;;;9.20;99.90;;;;;;5113350;28;19911;-63
2022/12/02 13:08:58;;;;;;;;;;;9.20;99.90;;;;;;5113715;28;20359;-64
2022/12/02 13:11:25;;;;;;;;;;;9.10;99.90;;;;;;5112451;28;19908;-64
2022/12/02 13:13:50;;;;;;;;;;;9.10;99.90;;;;;;5113484;28;19908;-63
2022/12/02 13:16:16;;;;;;;;;;;9.10;99.90;;;;;;5112392;28;20338;-65
2022/12/02 13:18:42;;;;;;;;;;;9.10;99.90;;;;;;5113816;28;19950;-65
2022/12/02 13:21:07;;;;;;;;;;;9.10;99.90;;;;;;5107580;28;19919;-65
2022/12/02 13:23:33;;;;;;;;;;;9.20;99.90;;;;;;5113796;28;19961;-65
2022/12/02 13:25:58;;;;;;;;;;;9.20;99.90;;;;;;5112343;28;19912;-65
2022/12/02 13:28:24;;;;;;;;;;;9.30;99.90;;;;;;5113228;28;19923;-63
2022/12/02 13:30:50;;;;;;;;;;;9.30;99.90;;;;;;5112402;28;19912;-63
2022/12/02 13:33:16;;;;;;;;;;;9.30;99.90;;;;;;5113110;28;19931;-65
2022/12/02 13:35:42;;;;;;;;;;;9.40;99.90;;;;;;5109959;28;19912;-65
2022/12/02 13:38:07;;;;;;;;;;;9.30;99.90;;;;;;5103044;28;19919;-64
2022/12/02 13:40:33;;;;;;;;;;;9.40;99.90;;;;;;5110648;28;19912;-65
2022/12/02 13:42:59;;;;;;;;;;;9.40;99.90;;;;;;5112650;28;20362;-63
2022/12/02 13:45:26;;;;;;;;;;;9.40;99.90;;;;;;5109597;28;19919;-63
2022/12/02 13:47:52;;;;;;;;;;;9.40;99.90;;;;;;5111914;28;19968;-65
2022/12/02 13:50:18;;;;;;;;;;;9.30;99.90;;;;;;5112687;28;20010;-65
2022/12/02 13:52:43;;;;;;;;;;;9.20;99.90;;;;;;5110791;28;19965;-64
2022/12/02 13:55:09;;;;;;;;;;;9.10;99.90;;;;;;5111581;28;20382;-65
2022/12/02 13:57:35;;;;;;;;;;;9.20;99.90;;;;;;5110123;28;19919;-63
2022/12/02 14:00:01;;;;;;;;;;;9.20;99.90;;;;;;5111393;28;20346;-64
2022/12/02 14:02:26;;;;;;;;;;;9.20;99.90;;;;;;5102964;28;19981;-64
2022/12/02 14:04:52;;;;;;;;;;;9.20;99.90;;;;;;5106749;28;19916;-65
2022/12/02 14:07:18;;;;;;;;;;;9.20;99.90;;;;;;5089571;28;19917;-65
2022/12/02 14:09:43;;;;;;;;;;;9.30;99.90;;;;;;5104888;28;20009;-65
2022/12/02 14:12:09;;;;;;;;;;;9.40;99.90;;;;;;5112262;28;20396;-66
2022/12/02 14:14:35;;;;;;;;;;;9.50;99.90;;;;;;5112011;28;19908;-64
2022/12/02 14:17:00;;;;;;;;;;;9.50;99.90;;;;;;5109825;28;20387;-66
2022/12/02 14:19:26;;;;;;;;;;;9.40;99.90;;;;;;5108674;28;19916;-64
2022/12/02 14:21:51;;;;;;;;;;;9.40;99.90;;;;;;5111262;28;19943;-65
2022/12/02 14:24:17;;;;;;;;;;;9.30;99.90;;;;;;5113326;28;19965;-64
2022/12/02 14:26:42;;;;;;;;;;;9.40;99.90;;;;;;5115817;28;20398;-66
2022/12/02 14:29:09;;;;;;;;;;;9.40;99.90;;;;;;5114618;28;20379;-65
2022/12/02 14:31:34;;;;;;;;;;;9.30;99.90;;;;;;5114520;28;20006;-65
2022/12/02 14:34:00;;;;;;;;;;;9.30;99.90;;;;;;5116038;28;19986;-66